Boden, Illinois
Current Conditions -  °F | °C
As of 9:52 PM on Thursday 20 Nov 2014 (Local Time) from KMLI Reporting Station
Clear Clear  
Wind Chill: 14°   Ceiling: Unl
Heat Index: 14°   Visibility: 10mi
Dew Point:   Wind: 3mph
Humidity: 71%   Direction: 280°W
Pressure: 30.31"   Gusts: NA
Location:  41.2864°N, 90.4945°W
Report Text: KMLI 210352Z AUTO 28003KT 10SM CLR M10/M14 A3031 RMK AO2 SLP276 T11001144
Loading
Personal Weather Stations






























Interactive Weather Map New forecast layout! Learn more

10-Day Weather Forecast

Advertisements
Track Severe Weather on mobile